sensor_id;sensor_type;location;lat;lon;timestamp;pressure;altitude;pressure_sealevel;temperature;humidity
40245;BME280;25963;42.694;23.600;2023-08-17T00:02:16;95295.31;;;21.83;98.89
40245;BME280;25963;42.694;23.600;2023-08-17T00:04:41;95288.69;;;21.76;98.13
40245;BME280;25963;42.694;23.600;2023-08-17T00:07:07;95300.25;;;21.76;98.13
40245;BME280;25963;42.694;23.600;2023-08-17T00:09:33;95298.25;;;21.63;97.94
40245;BME280;25963;42.694;23.600;2023-08-17T00:11:58;95311.72;;;21.82;97.64
40245;BME280;25963;42.694;23.600;2023-08-17T00:14:24;95296.53;;;21.72;97.98
40245;BME280;25963;42.694;23.600;2023-08-17T00:16:50;95307.09;;;21.87;97.52
40245;BME280;25963;42.694;23.600;2023-08-17T00:19:16;95284.16;;;21.71;97.76
40245;BME280;25963;42.694;23.600;2023-08-17T00:21:42;95285.22;;;21.46;98.82
40245;BME280;25963;42.694;23.600;2023-08-17T00:24:07;95301.97;;;21.62;98.52
40245;BME280;25963;42.694;23.600;2023-08-17T00:26:33;95284.25;;;21.66;98.47
40245;BME280;25963;42.694;23.600;2023-08-17T00:28:58;95294.00;;;21.57;98.83
40245;BME280;25963;42.694;23.600;2023-08-17T00:31:24;95302.41;;;21.74;98.43
40245;BME280;25963;42.694;23.600;2023-08-17T00:33:49;95282.25;;;21.77;97.72
40245;BME280;25963;42.694;23.600;2023-08-17T00:36:15;95283.03;;;21.77;97.30
40245;BME280;25963;42.694;23.600;2023-08-17T00:38:41;95285.66;;;21.58;99.13
40245;BME280;25963;42.694;23.600;2023-08-17T00:41:06;95284.91;;;21.53;99.82
40245;BME280;25963;42.694;23.600;2023-08-17T00:43:32;95292.50;;;21.46;99.49
40245;BME280;25963;42.694;23.600;2023-08-17T00:45:57;95280.06;;;21.55;99.98
40245;BME280;25963;42.694;23.600;2023-08-17T00:48:23;95292.25;;;21.42;100.00
40245;BME280;25963;42.694;23.600;2023-08-17T00:50:50;95286.81;;;21.18;100.00
40245;BME280;25963;42.694;23.600;2023-08-17T00:53:16;95294.84;;;21.18;100.00
40245;BME280;25963;42.694;23.600;2023-08-17T00:55:42;95290.63;;;21.07;100.00
40245;BME280;25963;42.694;23.600;2023-08-17T00:58:08;95283.84;;;20.85;100.00
40245;BME280;25963;42.694;23.600;2023-08-17T01:00:34;95296.56;;;20.64;100.00
40245;BME280;25963;42.694;23.600;2023-08-17T01:03:00;95283.41;;;20.68;100.00
40245;BME280;25963;42.694;23.600;2023-08-17T01:05:25;95287.69;;;20.64;100.00
40245;BME280;25963;42.694;23.600;2023-08-17T01:07:51;95273.25;;;20.65;100.00
40245;BME280;25963;42.694;23.600;2023-08-17T01:10:16;95286.09;;;20.63;100.00
40245;BME280;25963;42.694;23.600;2023-08-17T01:15:37;95284.19;;;20.73;100.00
40245;BME280;25963;42.694;23.600;2023-08-17T01:20:39;95292.09;;;20.44;100.00
40245;BME280;25963;42.694;23.600;2023-08-17T01:23:05;95292.09;;;20.39;100.00
40245;BME280;25963;42.694;23.600;2023-08-17T01:25:31;95275.81;;;20.30;100.00
40245;BME280;25963;42.694;23.600;2023-08-17T01:28:04;95278.47;;;20.30;100.00
40245;BME280;25963;42.694;23.600;2023-08-17T01:33:20;95269.31;;;19.87;100.00
40245;BME280;25963;42.694;23.600;2023-08-17T01:38:32;95287.69;;;20.04;100.00
40245;BME280;25963;42.694;23.600;2023-08-17T01:41:00;95277.28;;;20.02;100.00
40245;BME280;25963;42.694;23.600;2023-08-17T01:43:27;95272.25;;;19.86;100.00
40245;BME280;25963;42.694;23.600;2023-08-17T01:45:54;95277.59;;;19.86;100.00
40245;BME280;25963;42.694;23.600;2023-08-17T01:48:19;95276.25;;;19.88;100.00
40245;BME280;25963;42.694;23.600;2023-08-17T01:50:45;95276.78;;;19.95;100.00
40245;BME280;25963;42.694;23.600;2023-08-17T01:53:10;95263.91;;;19.92;100.00
40245;BME280;25963;42.694;23.600;2023-08-17T01:55:36;95269.59;;;19.80;100.00
40245;BME280;25963;42.694;23.600;2023-08-17T01:58:02;95268.78;;;19.80;100.00
40245;BME280;25963;42.694;23.600;2023-08-17T02:00:28;95269.06;;;19.78;100.00
40245;BME280;25963;42.694;23.600;2023-08-17T02:02:53;95281.63;;;19.83;100.00
40245;BME280;25963;42.694;23.600;2023-08-17T02:05:18;95257.31;;;19.69;100.00
40245;BME280;25963;42.694;23.600;2023-08-17T02:07:44;95264.56;;;19.38;100.00
40245;BME280;25963;42.694;23.600;2023-08-17T02:10:09;95262.38;;;19.50;100.00
40245;BME280;25963;42.694;23.600;2023-08-17T02:12:35;95282.44;;;19.68;100.00
40245;BME280;25963;42.694;23.600;2023-08-17T02:15:00;95271.75;;;19.58;100.00
40245;BME280;25963;42.694;23.600;2023-08-17T02:17:26;95286.75;;;19.49;100.00
40245;BME280;25963;42.694;23.600;2023-08-17T02:19:52;95276.84;;;19.54;100.00
40245;BME280;25963;42.694;23.600;2023-08-17T02:22:17;95278.47;;;19.45;100.00
40245;BME280;25963;42.694;23.600;2023-08-17T02:24:43;95273.66;;;19.42;100.00
40245;BME280;25963;42.694;23.600;2023-08-17T02:27:09;95272.03;;;19.41;100.00
40245;BME280;25963;42.694;23.600;2023-08-17T02:29:35;95273.41;;;19.38;100.00
40245;BME280;25963;42.694;23.600;2023-08-17T02:32:00;95273.91;;;19.41;100.00
40245;BME280;25963;42.694;23.600;2023-08-17T02:34:26;95270.97;;;19.47;100.00
40245;BME280;25963;42.694;23.600;2023-08-17T02:36:51;95281.13;;;19.55;100.00
40245;BME280;25963;42.694;23.600;2023-08-17T02:39:16;95271.75;;;19.53;100.00
40245;BME280;25963;42.694;23.600;2023-08-17T02:41:42;95267.00;;;19.24;100.00
40245;BME280;25963;42.694;23.600;2023-08-17T02:44:10;95269.97;;;19.18;100.00
40245;BME280;25963;42.694;23.600;2023-08-17T02:46:35;95272.09;;;19.21;100.00
40245;BME280;25963;42.694;23.600;2023-08-17T02:49:01;95264.59;;;18.87;100.00
40245;BME280;25963;42.694;23.600;2023-08-17T02:51:26;95262.47;;;18.74;100.00
40245;BME280;25963;42.694;23.600;2023-08-17T02:53:52;95262.19;;;18.80;100.00
40245;BME280;25963;42.694;23.600;2023-08-17T02:56:17;95265.69;;;18.91;100.00
40245;BME280;25963;42.694;23.600;2023-08-17T02:58:43;95250.16;;;18.78;100.00
40245;BME280;25963;42.694;23.600;2023-08-17T03:01:08;95265.34;;;18.62;100.00
40245;BME280;25963;42.694;23.600;2023-08-17T03:03:34;95257.06;;;18.68;100.00
40245;BME280;25963;42.694;23.600;2023-08-17T03:06:01;95254.63;;;18.41;100.00
40245;BME280;25963;42.694;23.600;2023-08-17T03:08:27;95266.91;;;18.37;100.00
40245;BME280;25963;42.694;23.600;2023-08-17T03:10:52;95256.19;;;18.27;100.00
40245;BME280;25963;42.694;23.600;2023-08-17T03:13:18;95260.13;;;18.04;100.00
40245;BME280;25963;42.694;23.600;2023-08-17T03:15:43;95276.47;;;17.70;100.00
40245;BME280;25963;42.694;23.600;2023-08-17T03:18:09;95267.44;;;17.76;100.00
40245;BME280;25963;42.694;23.600;2023-08-17T03:20:34;95272.47;;;17.68;100.00
40245;BME280;25963;42.694;23.600;2023-08-17T03:22:59;95268.78;;;17.74;100.00
40245;BME280;25963;42.694;23.600;2023-08-17T03:25:25;95262.63;;;17.68;100.00
40245;BME280;25963;42.694;23.600;2023-08-17T03:27:50;95280.19;;;17.59;100.00
40245;BME280;25963;42.694;23.600;2023-08-17T03:30:16;95269.94;;;17.46;100.00
40245;BME280;25963;42.694;23.600;2023-08-17T03:32:41;95258.31;;;17.62;100.00
40245;BME280;25963;42.694;23.600;2023-08-17T03:35:07;95259.72;;;17.75;100.00
40245;BME280;25963;42.694;23.600;2023-08-17T03:37:33;95284.53;;;17.75;100.00
40245;BME280;25963;42.694;23.600;2023-08-17T03:39:59;95274.44;;;17.83;100.00
40245;BME280;25963;42.694;23.600;2023-08-17T03:42:26;95276.09;;;17.94;100.00
40245;BME280;25963;42.694;23.600;2023-08-17T03:44:52;95271.06;;;18.02;100.00
40245;BME280;25963;42.694;23.600;2023-08-17T03:47:18;95284.69;;;18.01;100.00
40245;BME280;25963;42.694;23.600;2023-08-17T03:49:43;95284.69;;;18.01;100.00
40245;BME280;25963;42.694;23.600;2023-08-17T03:52:09;95277.47;;;18.07;100.00
40245;BME280;25963;42.694;23.600;2023-08-17T03:54:35;95286.88;;;18.24;100.00
40245;BME280;25963;42.694;23.600;2023-08-17T03:57:00;95282.06;;;18.21;100.00
40245;BME280;25963;42.694;23.600;2023-08-17T03:59:26;95284.50;;;18.28;100.00
40245;BME280;25963;42.694;23.600;2023-08-17T04:01:51;95283.19;;;18.36;100.00
40245;BME280;25963;42.694;23.600;2023-08-17T04:04:16;95282.69;;;18.49;100.00
40245;BME280;25963;42.694;23.600;2023-08-17T04:06:42;95282.72;;;18.64;100.00
40245;BME280;25963;42.694;23.600;2023-08-17T04:09:07;95283.84;;;18.74;100.00
40245;BME280;25963;42.694;23.600;2023-08-17T04:11:35;95266.69;;;18.69;100.00
40245;BME280;25963;42.694;23.600;2023-08-17T04:14:02;95267.53;;;18.85;100.00
40245;BME280;25963;42.694;23.600;2023-08-17T04:16:28;95288.09;;;19.05;100.00
40245;BME280;25963;42.694;23.600;2023-08-17T04:18:53;95270.22;;;19.01;100.00
40245;BME280;25963;42.694;23.600;2023-08-17T04:21:19;95275.56;;;19.01;100.00
40245;BME280;25963;42.694;23.600;2023-08-17T04:23:45;95273.69;;;19.06;100.00
40245;BME280;25963;42.694;23.600;2023-08-17T04:26:11;95279.84;;;19.12;100.00
40245;BME280;25963;42.694;23.600;2023-08-17T04:28:36;95281.16;;;18.99;100.00
40245;BME280;25963;42.694;23.600;2023-08-17T04:31:02;95277.16;;;19.07;100.00
40245;BME280;25963;42.694;23.600;2023-08-17T04:33:27;95283.59;;;19.01;100.00
40245;BME280;25963;42.694;23.600;2023-08-17T04:35:53;95284.38;;;18.91;100.00
40245;BME280;25963;42.694;23.600;2023-08-17T04:38:18;95272.88;;;18.90;100.00
40245;BME280;25963;42.694;23.600;2023-08-17T04:40:44;95277.94;;;19.23;100.00
40245;BME280;25963;42.694;23.600;2023-08-17T04:43:10;95279.53;;;19.54;100.00
40245;BME280;25963;42.694;23.600;2023-08-17T04:45:35;95272.38;;;20.20;100.00
40245;BME280;25963;42.694;23.600;2023-08-17T04:48:01;95270.31;;;21.64;100.00
40245;BME280;25963;42.694;23.600;2023-08-17T04:50:26;95267.25;;;23.18;100.00
40245;BME280;25963;42.694;23.600;2023-08-17T04:52:52;95269.16;;;24.33;89.21
40245;BME280;25963;42.694;23.600;2023-08-17T04:55:17;95282.47;;;25.70;81.38
40245;BME280;25963;42.694;23.600;2023-08-17T04:57:43;95284.97;;;26.37;76.42
40245;BME280;25963;42.694;23.600;2023-08-17T05:00:09;95270.69;;;27.67;67.73
40245;BME280;25963;42.694;23.600;2023-08-17T05:02:38;95275.22;;;28.61;62.75
40245;BME280;25963;42.694;23.600;2023-08-17T05:05:05;95278.00;;;29.36;58.55
40245;BME280;25963;42.694;23.600;2023-08-17T05:07:32;95272.00;;;29.76;56.20
40245;BME280;25963;42.694;23.600;2023-08-17T05:10:01;95261.16;;;29.88;53.46
40245;BME280;25963;42.694;23.600;2023-08-17T05:12:27;95261.88;;;30.34;53.93
40245;BME280;25963;42.694;23.600;2023-08-17T05:14:52;95266.38;;;30.06;53.15
40245;BME280;25963;42.694;23.600;2023-08-17T05:17:18;95279.09;;;30.51;53.08
40245;BME280;25963;42.694;23.600;2023-08-17T05:19:43;95267.38;;;30.87;50.23
40245;BME280;25963;42.694;23.600;2023-08-17T05:22:11;95277.22;;;31.32;48.67
40245;BME280;25963;42.694;23.600;2023-08-17T05:24:38;95253.66;;;31.52;48.99
40245;BME280;25963;42.694;23.600;2023-08-17T05:27:04;95264.72;;;31.59;47.63
40245;BME280;25963;42.694;23.600;2023-08-17T05:29:29;95279.59;;;31.33;48.79
40245;BME280;25963;42.694;23.600;2023-08-17T05:31:57;95258.78;;;31.69;49.49
40245;BME280;25963;42.694;23.600;2023-08-17T05:34:23;95259.44;;;31.22;50.34
40245;BME280;25963;42.694;23.600;2023-08-17T05:36:48;95263.44;;;31.12;49.90
40245;BME280;25963;42.694;23.600;2023-08-17T05:39:14;95259.28;;;31.59;48.90
40245;BME280;25963;42.694;23.600;2023-08-17T05:41:39;95260.91;;;31.92;48.20
40245;BME280;25963;42.694;23.600;2023-08-17T05:44:05;95250.09;;;32.11;48.67
40245;BME280;25963;42.694;23.600;2023-08-17T05:46:32;95266.56;;;31.99;47.99
40245;BME280;25963;42.694;23.600;2023-08-17T05:48:58;95256.06;;;32.33;50.63
40245;BME280;25963;42.694;23.600;2023-08-17T05:51:24;95260.09;;;32.39;49.61
40245;BME280;25963;42.694;23.600;2023-08-17T05:53:50;95266.56;;;31.99;49.04
40245;BME280;25963;42.694;23.600;2023-08-17T05:56:15;95257.94;;;30.97;52.73
40245;BME280;25963;42.694;23.600;2023-08-17T05:58:41;95266.22;;;31.28;52.79
40245;BME280;25963;42.694;23.600;2023-08-17T06:01:07;95276.47;;;31.19;53.82
40245;BME280;25963;42.694;23.600;2023-08-17T06:03:36;95277.28;;;30.79;54.84
40245;BME280;25963;42.694;23.600;2023-08-17T06:06:03;95263.03;;;31.38;55.43
40245;BME280;25963;42.694;23.600;2023-08-17T06:08:28;95264.44;;;31.20;54.98
40245;BME280;25963;42.694;23.600;2023-08-17T06:10:54;95265.09;;;31.73;52.51
40245;BME280;25963;42.694;23.600;2023-08-17T06:13:20;95268.84;;;31.53;51.87
40245;BME280;25963;42.694;23.600;2023-08-17T06:15:45;95262.09;;;31.06;54.68
40245;BME280;25963;42.694;23.600;2023-08-17T06:18:11;95265.31;;;30.96;53.88
40245;BME280;25963;42.694;23.600;2023-08-17T06:20:36;95257.06;;;30.68;57.08
40245;BME280;25963;42.694;23.600;2023-08-17T06:23:02;95267.66;;;30.45;56.95
40245;BME280;25963;42.694;23.600;2023-08-17T06:25:27;95255.03;;;30.65;56.38
40245;BME280;25963;42.694;23.600;2023-08-17T06:27:53;95269.72;;;31.29;55.86
40245;BME280;25963;42.694;23.600;2023-08-17T06:30:18;95252.47;;;31.09;56.46
40245;BME280;25963;42.694;23.600;2023-08-17T06:32:44;95259.00;;;31.48;53.70
40245;BME280;25963;42.694;23.600;2023-08-17T06:35:09;95265.41;;;32.00;52.11
40245;BME280;25963;42.694;23.600;2023-08-17T06:37:35;95265.31;;;32.12;52.53
40245;BME280;25963;42.694;23.600;2023-08-17T06:40:04;95268.56;;;32.18;50.53
40245;BME280;25963;42.694;23.600;2023-08-17T06:42:36;95260.63;;;31.81;50.42
40245;BME280;25963;42.694;23.600;2023-08-17T06:45:02;95277.06;;;31.12;50.99
40245;BME280;25963;42.694;23.600;2023-08-17T06:47:28;95259.00;;;31.48;50.29
40245;BME280;25963;42.694;23.600;2023-08-17T06:49:54;95270.38;;;31.66;49.01
40245;BME280;25963;42.694;23.600;2023-08-17T06:52:20;95279.09;;;31.72;49.18
40245;BME280;25963;42.694;23.600;2023-08-17T06:54:45;95267.47;;;31.31;52.05
40245;BME280;25963;42.694;23.600;2023-08-17T06:57:11;95270.63;;;31.61;52.58
40245;BME280;25963;42.694;23.600;2023-08-17T06:59:36;95255.59;;;31.67;51.18
40245;BME280;25963;42.694;23.600;2023-08-17T07:02:02;95268.66;;;31.46;50.32
40245;BME280;25963;42.694;23.600;2023-08-17T07:04:28;95271.25;;;31.26;48.41
40245;BME280;25963;42.694;23.600;2023-08-17T07:06:53;95272.88;;;31.15;50.92
40245;BME280;25963;42.694;23.600;2023-08-17T07:09:19;95263.75;;;31.23;49.47
40245;BME280;25963;42.694;23.600;2023-08-17T07:11:45;95269.84;;;31.32;47.48
40245;BME280;25963;42.694;23.600;2023-08-17T07:14:11;95261.38;;;30.93;47.02
40245;BME280;25963;42.694;23.600;2023-08-17T07:16:37;95275.13;;;30.60;44.00
40245;BME280;25963;42.694;23.600;2023-08-17T07:19:03;95264.47;;;30.67;44.17
40245;BME280;25963;42.694;23.600;2023-08-17T07:21:29;95270.69;;;30.68;45.22
40245;BME280;25963;42.694;23.600;2023-08-17T07:23:54;95274.44;;;30.51;45.50
40245;BME280;25963;42.694;23.600;2023-08-17T07:26:20;95267.75;;;30.73;45.29
40245;BME280;25963;42.694;23.600;2023-08-17T07:28:47;95266.16;;;30.84;42.27
40245;BME280;25963;42.694;23.600;2023-08-17T07:31:12;95275.03;;;30.44;42.58
40245;BME280;25963;42.694;23.600;2023-08-17T07:33:38;95258.13;;;30.14;44.98
40245;BME280;25963;42.694;23.600;2023-08-17T07:36:05;95252.22;;;30.00;47.55
40245;BME280;25963;42.694;23.600;2023-08-17T07:38:33;95263.81;;;30.34;48.11
40245;BME280;25963;42.694;23.600;2023-08-17T07:40:59;95253.56;;;29.94;45.44
40245;BME280;25963;42.694;23.600;2023-08-17T07:43:24;95263.34;;;29.95;46.74
40245;BME280;25963;42.694;23.600;2023-08-17T07:45:59;95252.66;;;29.90;47.25
40245;BME280;25963;42.694;23.600;2023-08-17T07:48:24;95261.19;;;29.55;46.94
40245;BME280;25963;42.694;23.600;2023-08-17T07:50:50;95265.81;;;30.00;45.73
40245;BME280;25963;42.694;23.600;2023-08-17T07:53:17;95252.00;;;30.17;46.63
40245;BME280;25963;42.694;23.600;2023-08-17T07:55:42;95254.84;;;30.21;44.38
40245;BME280;25963;42.694;23.600;2023-08-17T07:58:07;95268.47;;;30.21;45.94
40245;BME280;25963;42.694;23.600;2023-08-17T08:00:33;95260.53;;;30.40;46.65
40245;BME280;25963;42.694;23.600;2023-08-17T08:02:58;95259.84;;;30.31;45.33
40245;BME280;25963;42.694;23.600;2023-08-17T08:05:24;95254.50;;;30.47;45.40
40245;BME280;25963;42.694;23.600;2023-08-17T08:07:49;95249.63;;;31.05;45.16
40245;BME280;25963;42.694;23.600;2023-08-17T08:10:15;95250.66;;;31.01;42.88
40245;BME280;25963;42.694;23.600;2023-08-17T08:12:40;95252.53;;;30.60;43.45
40245;BME280;25963;42.694;23.600;2023-08-17T08:15:06;95247.44;;;31.11;42.88
40245;BME280;25963;42.694;23.600;2023-08-17T08:17:32;95254.72;;;31.07;42.90
40245;BME280;25963;42.694;23.600;2023-08-17T08:19:57;95236.25;;;31.28;43.64
40245;BME280;25963;42.694;23.600;2023-08-17T08:22:23;95234.84;;;30.78;41.81
40245;BME280;25963;42.694;23.600;2023-08-17T08:24:49;95241.00;;;30.51;42.81
40245;BME280;25963;42.694;23.600;2023-08-17T08:27:14;95246.22;;;30.56;42.76
40245;BME280;25963;42.694;23.600;2023-08-17T08:29:40;95233.34;;;31.21;43.47
40245;BME280;25963;42.694;23.600;2023-08-17T08:32:05;95234.59;;;30.83;43.72
40245;BME280;25963;42.694;23.600;2023-08-17T08:34:31;95232.13;;;30.66;43.04
40245;BME280;25963;42.694;23.600;2023-08-17T08:36:56;95239.47;;;30.78;41.97
40245;BME280;25963;42.694;23.600;2023-08-17T08:39:24;95232.09;;;30.90;43.08
40245;BME280;25963;42.694;23.600;2023-08-17T08:41:50;95237.88;;;30.89;42.74
40245;BME280;25963;42.694;23.600;2023-08-17T08:44:15;95236.22;;;30.60;43.87
40245;BME280;25963;42.694;23.600;2023-08-17T08:46:44;95229.84;;;30.80;43.57
40245;BME280;25963;42.694;23.600;2023-08-17T08:49:10;95230.78;;;31.28;42.95
40245;BME280;25963;42.694;23.600;2023-08-17T08:51:42;95229.38;;;30.90;41.75
40245;BME280;25963;42.694;23.600;2023-08-17T08:54:13;95226.00;;;31.37;41.88
40245;BME280;25963;42.694;23.600;2023-08-17T08:56:42;95203.97;;;31.58;42.62
40245;BME280;25963;42.694;23.600;2023-08-17T08:59:08;95215.50;;;30.96;42.30
40245;BME280;25963;42.694;23.600;2023-08-17T09:01:43;95230.91;;;31.04;42.33
40245;BME280;25963;42.694;23.600;2023-08-17T09:04:09;95225.69;;;31.55;42.67
40245;BME280;25963;42.694;23.600;2023-08-17T09:06:35;95219.13;;;31.72;41.05
40245;BME280;25963;42.694;23.600;2023-08-17T09:09:02;95213.31;;;31.89;41.67
40245;BME280;25963;42.694;23.600;2023-08-17T09:11:28;95214.81;;;31.87;41.21
40245;BME280;25963;42.694;23.600;2023-08-17T09:13:53;95214.72;;;31.83;41.16
40245;BME280;25963;42.694;23.600;2023-08-17T09:16:19;95222.03;;;32.11;39.70
40245;BME280;25963;42.694;23.600;2023-08-17T09:18:45;95214.09;;;32.21;40.18
40245;BME280;25963;42.694;23.600;2023-08-17T09:21:23;95199.16;;;31.99;41.46
40245;BME280;25963;42.694;23.600;2023-08-17T09:23:53;95186.19;;;32.28;41.87
40245;BME280;25963;42.694;23.600;2023-08-17T09:26:20;95202.75;;;32.55;41.12
40245;BME280;25963;42.694;23.600;2023-08-17T09:28:48;95190.38;;;32.41;38.34
40245;BME280;25963;42.694;23.600;2023-08-17T09:31:13;95201.59;;;32.20;38.28
40245;BME280;25963;42.694;23.600;2023-08-17T09:33:39;95178.06;;;32.32;39.58
40245;BME280;25963;42.694;23.600;2023-08-17T09:36:05;95190.38;;;32.77;40.81
40245;BME280;25963;42.694;23.600;2023-08-17T09:38:30;95194.47;;;31.84;40.42
40245;BME280;25963;42.694;23.600;2023-08-17T09:40:59;95178.22;;;32.39;40.58
40245;BME280;25963;42.694;23.600;2023-08-17T09:43:25;95181.59;;;32.32;39.64
40245;BME280;25963;42.694;23.600;2023-08-17T09:45:54;95175.69;;;32.30;40.34
40245;BME280;25963;42.694;23.600;2023-08-17T09:48:19;95171.53;;;32.36;38.36
40245;BME280;25963;42.694;23.600;2023-08-17T09:50:47;95170.09;;;32.58;39.29
40245;BME280;25963;42.694;23.600;2023-08-17T09:53:16;95179.59;;;31.81;40.90
40245;BME280;25963;42.694;23.600;2023-08-17T09:55:43;95180.06;;;31.83;42.82
40245;BME280;25963;42.694;23.600;2023-08-17T09:58:09;95163.41;;;31.73;40.14
40245;BME280;25963;42.694;23.600;2023-08-17T10:00:35;95164.81;;;32.14;39.73
40245;BME280;25963;42.694;23.600;2023-08-17T10:03:03;95162.72;;;32.43;39.04
40245;BME280;25963;42.694;23.600;2023-08-17T10:05:32;95167.50;;;32.46;39.32
40245;BME280;25963;42.694;23.600;2023-08-17T10:08:03;95164.28;;;32.44;38.54
40245;BME280;25963;42.694;23.600;2023-08-17T10:10:34;95161.25;;;32.29;38.01
40245;BME280;25963;42.694;23.600;2023-08-17T10:13:22;95164.63;;;32.23;38.45
40245;BME280;25963;42.694;23.600;2023-08-17T10:15:55;95151.31;;;32.57;37.66
40245;BME280;25963;42.694;23.600;2023-08-17T10:21:43;95149.25;;;32.89;38.00
40245;BME280;25963;42.694;23.600;2023-08-17T10:24:12;95140.59;;;32.87;38.94
40245;BME280;25963;42.694;23.600;2023-08-17T10:26:38;95151.97;;;32.69;37.08
40245;BME280;25963;42.694;23.600;2023-08-17T10:29:05;95156.72;;;33.11;37.70
40245;BME280;25963;42.694;23.600;2023-08-17T10:31:34;95155.41;;;33.25;35.33
40245;BME280;25963;42.694;23.600;2023-08-17T10:34:00;95150.66;;;33.22;34.22
40245;BME280;25963;42.694;23.600;2023-08-17T10:36:26;95141.78;;;33.28;35.61
40245;BME280;25963;42.694;23.600;2023-08-17T10:39:17;95138.53;;;33.65;35.16
40245;BME280;25963;42.694;23.600;2023-08-17T10:41:50;95142.78;;;33.62;37.13
40245;BME280;25963;42.694;23.600;2023-08-17T10:44:18;95148.25;;;33.62;36.73
40245;BME280;25963;42.694;23.600;2023-08-17T10:46:43;95154.28;;;33.72;38.46
40245;BME280;25963;42.694;23.600;2023-08-17T10:49:26;95140.22;;;33.27;38.36
40245;BME280;25963;42.694;23.600;2023-08-17T10:52:07;95136.38;;;33.32;43.40
40245;BME280;25963;42.694;23.600;2023-08-17T10:54:36;95142.19;;;33.27;38.06
40245;BME280;25963;42.694;23.600;2023-08-17T10:57:30;95137.91;;;33.06;38.85
40245;BME280;25963;42.694;23.600;2023-08-17T11:02:39;95126.75;;;33.15;40.58
40245;BME280;25963;42.694;23.600;2023-08-17T11:05:05;95127.53;;;33.61;40.57
40245;BME280;25963;42.694;23.600;2023-08-17T11:07:40;95120.66;;;33.48;38.54
40245;BME280;25963;42.694;23.600;2023-08-17T11:10:29;95132.94;;;33.12;38.58
40245;BME280;25963;42.694;23.600;2023-08-17T11:12:58;95132.09;;;33.31;37.27
40245;BME280;25963;42.694;23.600;2023-08-17T11:15:37;95126.56;;;33.73;36.67
40245;BME280;25963;42.694;23.600;2023-08-17T11:18:11;95108.19;;;33.74;38.29
40245;BME280;25963;42.694;23.600;2023-08-17T11:20:39;95123.81;;;32.65;41.17
40245;BME280;25963;42.694;23.600;2023-08-17T11:23:06;95130.25;;;32.57;40.10
40245;BME280;25963;42.694;23.600;2023-08-17T11:25:36;95112.50;;;32.86;41.37
40245;BME280;25963;42.694;23.600;2023-08-17T11:28:07;95103.34;;;33.17;40.07
40245;BME280;25963;42.694;23.600;2023-08-17T11:30:34;95103.66;;;33.58;39.86
40245;BME280;25963;42.694;23.600;2023-08-17T11:33:01;95120.75;;;33.52;39.51
40245;BME280;25963;42.694;23.600;2023-08-17T11:35:26;95105.78;;;33.69;39.24
40245;BME280;25963;42.694;23.600;2023-08-17T11:37:52;95113.06;;;33.84;39.93
40245;BME280;25963;42.694;23.600;2023-08-17T11:40:17;95115.81;;;33.61;40.84
40245;BME280;25963;42.694;23.600;2023-08-17T11:42:45;95102.66;;;33.47;38.98
40245;BME280;25963;42.694;23.600;2023-08-17T11:45:11;95096.44;;;33.24;38.78
40245;BME280;25963;42.694;23.600;2023-08-17T11:47:40;95112.41;;;33.22;39.55
40245;BME280;25963;42.694;23.600;2023-08-17T11:50:09;95098.25;;;33.16;41.27
40245;BME280;25963;42.694;23.600;2023-08-17T11:52:35;95097.47;;;33.15;40.64
40245;BME280;25963;42.694;23.600;2023-08-17T11:55:08;95098.34;;;33.23;41.43
40245;BME280;25963;42.694;23.600;2023-08-17T11:57:43;95090.59;;;33.25;40.84
40245;BME280;25963;42.694;23.600;2023-08-17T12:00:09;95100.78;;;33.05;38.80
40245;BME280;25963;42.694;23.600;2023-08-17T12:02:38;95092.72;;;33.12;38.20
40245;BME280;25963;42.694;23.600;2023-08-17T12:05:10;95092.84;;;33.42;39.39
40245;BME280;25963;42.694;23.600;2023-08-17T12:07:36;95083.72;;;33.35;40.31
40245;BME280;25963;42.694;23.600;2023-08-17T12:10:03;95088.03;;;32.93;39.09
40245;BME280;25963;42.694;23.600;2023-08-17T12:12:29;95085.69;;;32.72;39.98
40245;BME280;25963;42.694;23.600;2023-08-17T12:14:57;95090.78;;;32.93;39.85
40245;BME280;25963;42.694;23.600;2023-08-17T12:17:22;95083.03;;;32.95;39.79
40245;BME280;25963;42.694;23.600;2023-08-17T12:19:49;95074.19;;;33.25;39.91
40245;BME280;25963;42.694;23.600;2023-08-17T12:22:15;95082.78;;;33.24;38.57
40245;BME280;25963;42.694;23.600;2023-08-17T12:24:41;95068.38;;;33.27;40.28
40245;BME280;25963;42.694;23.600;2023-08-17T12:27:07;95065.81;;;33.37;39.49
40245;BME280;25963;42.694;23.600;2023-08-17T12:29:32;95073.34;;;33.21;40.12
40245;BME280;25963;42.694;23.600;2023-08-17T12:31:58;95066.25;;;33.16;36.85
40245;BME280;25963;42.694;23.600;2023-08-17T12:34:25;95071.34;;;33.18;37.86
40245;BME280;25963;42.694;23.600;2023-08-17T12:36:50;95064.53;;;33.08;38.35
40245;BME280;25963;42.694;23.600;2023-08-17T12:39:16;95083.41;;;32.94;38.05
40245;BME280;25963;42.694;23.600;2023-08-17T12:41:41;95054.22;;;33.21;37.66
40245;BME280;25963;42.694;23.600;2023-08-17T12:44:09;95072.63;;;33.24;38.27
40245;BME280;25963;42.694;23.600;2023-08-17T12:46:34;95062.28;;;33.37;38.32
40245;BME280;25963;42.694;23.600;2023-08-17T12:49:00;95061.06;;;33.11;39.23
40245;BME280;25963;42.694;23.600;2023-08-17T12:51:25;95059.25;;;33.19;39.58
40245;BME280;25963;42.694;23.600;2023-08-17T12:53:51;95070.06;;;33.35;38.89
40245;BME280;25963;42.694;23.600;2023-08-17T12:56:16;95060.50;;;33.48;39.17
40245;BME280;25963;42.694;23.600;2023-08-17T12:58:41;95061.66;;;33.70;39.00
40245;BME280;25963;42.694;23.600;2023-08-17T13:01:07;95054.91;;;33.41;37.76
40245;BME280;25963;42.694;23.600;2023-08-17T13:03:32;95058.88;;;32.97;38.95